createdAt,value
2023-11-03T06:59:53.255Z,11.00
2023-11-03T07:02:20.421Z,9.75
2023-11-03T07:04:49.483Z,11.32
2023-11-03T07:07:17.644Z,11.57
2023-11-03T07:09:44.784Z,10.40
2023-11-03T07:12:14.679Z,10.93
2023-11-03T07:14:41.788Z,8.70
2023-11-03T07:17:09.851Z,9.93
2023-11-03T07:19:37.666Z,8.77
2023-11-03T07:22:05.057Z,10.32
2023-11-03T07:24:32.699Z,9.15
2023-11-03T07:27:00.910Z,7.82
2023-11-03T07:29:28.166Z,9.20
2023-11-03T07:31:55.338Z,11.20
2023-11-03T07:34:22.643Z,9.90
2023-11-03T07:36:49.847Z,9.43
2023-11-03T07:39:17.163Z,10.73
2023-11-03T07:41:44.822Z,9.05
2023-11-03T07:44:14.807Z,11.33
2023-11-03T07:46:42.126Z,10.95
2023-11-03T07:49:09.233Z,13.02
2023-11-03T07:51:36.370Z,10.20
2023-11-03T07:54:03.545Z,9.98
2023-11-03T07:56:35.793Z,12.50
2023-11-03T07:59:04.820Z,11.55
2023-11-03T08:01:32.014Z,10.27
2023-11-03T08:03:59.483Z,9.10
2023-11-03T08:06:27.340Z,13.43
2023-11-03T08:54:01.755Z,10.65
2023-11-03T08:56:29.879Z,9.07
2023-11-03T08:58:58.359Z,10.50
2023-11-03T09:01:27.066Z,8.52
2023-11-03T09:03:55.024Z,8.33
2023-11-03T09:06:22.649Z,7.13
2023-11-03T09:08:50.177Z,9.57
2023-11-03T09:11:17.710Z,8.57
2023-11-03T09:13:55.356Z,8.43
2023-11-03T09:16:23.899Z,7.60
2023-11-03T09:18:55.268Z,8.80
2023-11-03T09:21:24.801Z,7.90
2023-11-03T09:23:52.360Z,7.82
2023-11-03T09:26:20.482Z,8.23
2023-11-03T09:28:50.366Z,8.73
2023-11-03T09:31:17.604Z,7.38
2023-11-03T09:33:44.760Z,9.88
2023-11-03T09:36:12.387Z,9.07
2023-11-03T09:38:40.298Z,7.57
2023-11-03T09:41:10.892Z,8.43
2023-11-03T09:43:38.148Z,7.90
2023-11-03T09:46:05.494Z,7.05
2023-11-03T09:48:34.715Z,7.50
2023-11-03T15:33:55.281Z,10.18
2023-11-03T15:36:22.678Z,11.90
2023-11-03T15:38:52.219Z,10.40
2023-11-03T15:41:19.706Z,11.97
2023-11-03T15:43:46.871Z,10.73
2023-11-03T15:46:17.069Z,13.93
2023-11-03T15:48:46.384Z,13.00
2023-11-03T15:51:14.175Z,10.68
2023-11-03T15:53:48.049Z,11.87
2023-11-03T15:56:17.723Z,10.50
2023-11-03T15:58:45.757Z,9.65
2023-11-03T16:01:35.821Z,10.30
2023-11-03T16:04:04.432Z,11.88
2023-11-03T16:06:33.089Z,10.67
2023-11-03T16:09:00.435Z,9.23
2023-11-03T16:11:27.555Z,10.30
2023-11-03T16:13:54.937Z,10.23
2023-11-03T16:16:23.234Z,10.52
2023-11-03T16:18:53.208Z,9.83
2023-11-03T16:21:22.031Z,11.77
2023-11-03T16:23:49.603Z,14.38
2023-11-03T16:26:16.732Z,16.92
2023-11-03T16:28:43.985Z,14.85
2023-11-03T16:31:11.168Z,17.50
2023-11-03T16:33:38.654Z,19.25
2023-11-03T16:36:06.370Z,21.45
2023-11-03T16:38:33.467Z,39.92
2023-11-03T16:41:01.394Z,21.95
2023-11-03T16:43:28.582Z,18.50
2023-11-03T16:45:55.984Z,13.43
2023-11-03T16:48:27.924Z,18.83
2023-11-03T16:50:55.662Z,17.27
2023-11-03T16:53:24.724Z,17.13
2023-11-03T16:55:54.900Z,13.57
2023-11-03T16:58:22.647Z,16.48
2023-11-03T17:00:51.462Z,14.68
2023-11-03T17:03:22.647Z,13.75
2023-11-03T17:05:51.830Z,14.57
2023-11-03T17:08:19.939Z,25.93
2023-11-03T17:10:47.371Z,13.82
2023-11-03T17:13:15.442Z,12.82
2023-11-03T17:15:43.642Z,13.05
2023-11-03T17:18:11.537Z,13.73
2023-11-03T17:20:38.716Z,14.37
2023-11-03T17:23:08.367Z,12.68
2023-11-03T17:25:36.213Z,11.98
2023-11-03T17:28:03.472Z,13.52
2023-11-03T17:30:31.737Z,13.68
2023-11-03T17:32:59.044Z,14.93
2023-11-03T17:35:26.821Z,14.43
2023-11-03T17:37:56.347Z,17.00
2023-11-03T17:40:24.830Z,20.60
2023-11-03T17:42:55.756Z,15.63
2023-11-03T17:45:23.345Z,13.87
2023-11-03T17:47:51.816Z,12.55
2023-11-03T17:50:20.843Z,13.38
2023-11-03T17:52:55.022Z,18.70
2023-11-03T17:55:26.994Z,14.35
